sensor_id;sensor_type;location;lat;lon;timestamp;pressure;altitude;pressure_sealevel;temperature;humidity
65760;BME280;52496;51.082;5.066;2023-02-28T00:00:54;102931.56;;;-0.58;95.47
65760;BME280;52496;51.082;5.066;2023-02-28T00:03:25;102929.84;;;-0.59;95.55
65760;BME280;52496;51.082;5.066;2023-02-28T00:05:55;102926.50;;;-0.63;95.42
65760;BME280;52496;51.082;5.066;2023-02-28T00:08:26;102928.41;;;-0.66;95.89
65760;BME280;52496;51.082;5.066;2023-02-28T00:11:01;102932.03;;;-0.71;96.17
65760;BME280;52496;51.082;5.066;2023-02-28T00:13:35;102930.38;;;-0.73;96.19
65760;BME280;52496;51.082;5.066;2023-02-28T00:16:08;102928.81;;;-0.77;96.23
65760;BME280;52496;51.082;5.066;2023-02-28T00:18:40;102930.75;;;-0.82;96.52
65760;BME280;52496;51.082;5.066;2023-02-28T00:21:11;102930.97;;;-0.88;97.03
65760;BME280;52496;51.082;5.066;2023-02-28T00:23:42;102930.31;;;-0.94;97.07
65760;BME280;52496;51.082;5.066;2023-02-28T00:26:12;102935.69;;;-0.97;97.48
65760;BME280;52496;51.082;5.066;2023-02-28T00:28:43;102925.41;;;-1.03;97.37
65760;BME280;52496;51.082;5.066;2023-02-28T00:31:14;102921.19;;;-1.07;97.72
65760;BME280;52496;51.082;5.066;2023-02-28T00:33:44;102920.44;;;-1.10;97.72
65760;BME280;52496;51.082;5.066;2023-02-28T00:36:15;102923.25;;;-1.15;98.00
65760;BME280;52496;51.082;5.066;2023-02-28T00:38:45;102927.78;;;-1.19;98.18
65760;BME280;52496;51.082;5.066;2023-02-28T00:41:16;102921.00;;;-1.26;98.58
65760;BME280;52496;51.082;5.066;2023-02-28T00:43:46;102926.38;;;-1.29;98.96
65760;BME280;52496;51.082;5.066;2023-02-28T00:46:17;102928.16;;;-1.29;99.99
65760;BME280;52496;51.082;5.066;2023-02-28T00:48:48;102931.69;;;-1.30;100.00
65760;BME280;52496;51.082;5.066;2023-02-28T00:51:18;102930.88;;;-1.32;100.00
65760;BME280;52496;51.082;5.066;2023-02-28T00:53:49;102930.88;;;-1.32;99.85
65760;BME280;52496;51.082;5.066;2023-02-28T00:56:20;102942.31;;;-1.33;100.00
65760;BME280;52496;51.082;5.066;2023-02-28T00:58:50;102938.91;;;-1.37;100.00
65760;BME280;52496;51.082;5.066;2023-02-28T01:01:21;102940.75;;;-1.39;100.00
65760;BME280;52496;51.082;5.066;2023-02-28T01:03:52;102942.56;;;-1.41;100.00
65760;BME280;52496;51.082;5.066;2023-02-28T01:06:23;102941.72;;;-1.42;100.00
65760;BME280;52496;51.082;5.066;2023-02-28T01:08:54;102945.16;;;-1.40;100.00
65760;BME280;52496;51.082;5.066;2023-02-28T01:11:24;102948.69;;;-1.41;100.00
65760;BME280;52496;51.082;5.066;2023-02-28T01:13:55;102951.38;;;-1.42;100.00
65760;BME280;52496;51.082;5.066;2023-02-28T01:16:26;102947.09;;;-1.45;100.00
65760;BME280;52496;51.082;5.066;2023-02-28T01:18:57;102956.88;;;-1.50;100.00
65760;BME280;52496;51.082;5.066;2023-02-28T01:21:27;102947.31;;;-1.51;100.00
65760;BME280;52496;51.082;5.066;2023-02-28T01:24:00;102942.06;;;-1.51;100.00
65760;BME280;52496;51.082;5.066;2023-02-28T01:26:31;102952.56;;;-1.51;100.00
65760;BME280;52496;51.082;5.066;2023-02-28T01:29:02;102949.13;;;-1.53;100.00
65760;BME280;52496;51.082;5.066;2023-02-28T01:31:32;102948.34;;;-1.55;100.00
65760;BME280;52496;51.082;5.066;2023-02-28T01:34:03;102943.13;;;-1.56;100.00
65760;BME280;52496;51.082;5.066;2023-02-28T01:36:34;102946.59;;;-1.56;100.00
65760;BME280;52496;51.082;5.066;2023-02-28T01:39:04;102943.97;;;-1.56;100.00
65760;BME280;52496;51.082;5.066;2023-02-28T01:41:35;102942.28;;;-1.57;100.00
65760;BME280;52496;51.082;5.066;2023-02-28T01:44:54;102949.22;;;-1.56;100.00
65760;BME280;52496;51.082;5.066;2023-02-28T01:46:58;102937.97;;;-1.59;100.00
65760;BME280;52496;51.082;5.066;2023-02-28T01:49:28;102938.09;;;-1.63;100.00
65760;BME280;52496;51.082;5.066;2023-02-28T01:51:59;102928.56;;;-1.65;100.00
65760;BME280;52496;51.082;5.066;2023-02-28T01:54:31;102930.41;;;-1.67;100.00
65760;BME280;52496;51.082;5.066;2023-02-28T01:57:13;102930.53;;;-1.72;100.00
65760;BME280;52496;51.082;5.066;2023-02-28T01:59:57;102927.22;;;-1.77;100.00
65760;BME280;52496;51.082;5.066;2023-02-28T02:02:29;102932.53;;;-1.78;100.00
65760;BME280;52496;51.082;5.066;2023-02-28T02:05:07;102931.72;;;-1.80;100.00
65760;BME280;52496;51.082;5.066;2023-02-28T02:07:40;102929.09;;;-1.80;100.00
65760;BME280;52496;51.082;5.066;2023-02-28T02:10:15;102920.38;;;-1.81;100.00
65760;BME280;52496;51.082;5.066;2023-02-28T02:12:51;102922.16;;;-1.81;100.00
65760;BME280;52496;51.082;5.066;2023-02-28T02:15:28;102916.91;;;-1.81;100.00
65760;BME280;52496;51.082;5.066;2023-02-28T02:18:19;102913.34;;;-1.80;100.00
65760;BME280;52496;51.082;5.066;2023-02-28T02:27:16;102902.50;;;-1.70;100.00
65760;BME280;52496;51.082;5.066;2023-02-28T02:32:45;102903.34;;;-1.69;100.00
65760;BME280;52496;51.082;5.066;2023-02-28T02:35:23;102900.72;;;-1.69;100.00
65760;BME280;52496;51.082;5.066;2023-02-28T02:38:07;102901.75;;;-1.73;100.00
65760;BME280;52496;51.082;5.066;2023-02-28T02:43:53;102900.53;;;-1.88;100.00
65760;BME280;52496;51.082;5.066;2023-02-28T02:46:31;102903.41;;;-1.96;100.00
65760;BME280;52496;51.082;5.066;2023-02-28T02:49:06;102906.34;;;-2.05;100.00
65760;BME280;52496;51.082;5.066;2023-02-28T02:51:40;102901.47;;;-2.16;100.00
65760;BME280;52496;51.082;5.066;2023-02-28T02:54:15;102900.00;;;-2.24;100.00
65760;BME280;52496;51.082;5.066;2023-02-28T02:56:48;102901.09;;;-2.32;100.00
65760;BME280;52496;51.082;5.066;2023-02-28T02:59:22;102898.69;;;-2.38;100.00
65760;BME280;52496;51.082;5.066;2023-02-28T03:02:00;102903.22;;;-2.43;100.00
65760;BME280;52496;51.082;5.066;2023-02-28T03:04:36;102902.38;;;-2.43;100.00
65760;BME280;52496;51.082;5.066;2023-02-28T03:07:08;102901.50;;;-2.44;100.00
65760;BME280;52496;51.082;5.066;2023-02-28T03:09:39;102905.03;;;-2.45;100.00
65760;BME280;52496;51.082;5.066;2023-02-28T03:12:12;102901.50;;;-2.44;100.00
65760;BME280;52496;51.082;5.066;2023-02-28T03:17:55;102898.31;;;-2.54;100.00
65760;BME280;52496;51.082;5.066;2023-02-28T03:21:06;102904.69;;;-2.61;100.00
65760;BME280;52496;51.082;5.066;2023-02-28T03:24:02;102895.16;;;-2.63;100.00
65760;BME280;52496;51.082;5.066;2023-02-28T03:26:39;102898.88;;;-2.70;100.00
65760;BME280;52496;51.082;5.066;2023-02-28T03:31:52;102899.16;;;-2.80;100.00
65760;BME280;52496;51.082;5.066;2023-02-28T03:34:37;102902.72;;;-2.82;100.00
65760;BME280;52496;51.082;5.066;2023-02-28T03:37:16;102893.19;;;-2.85;100.00
65760;BME280;52496;51.082;5.066;2023-02-28T03:39:59;102896.72;;;-2.86;100.00
65760;BME280;52496;51.082;5.066;2023-02-28T03:42:35;102903.78;;;-2.89;100.00
65760;BME280;52496;51.082;5.066;2023-02-28T03:45:19;102908.28;;;-2.93;100.00
65760;BME280;52496;51.082;5.066;2023-02-28T03:48:11;102904.88;;;-2.95;100.00
65760;BME280;52496;51.082;5.066;2023-02-28T03:50:46;102903.97;;;-2.95;100.00
65760;BME280;52496;51.082;5.066;2023-02-28T03:53:42;102905.84;;;-2.99;100.00
65760;BME280;52496;51.082;5.066;2023-02-28T03:56:26;102912.00;;;-3.00;100.00
65760;BME280;52496;51.082;5.066;2023-02-28T03:59:05;102904.13;;;-3.00;100.00
65760;BME280;52496;51.082;5.066;2023-02-28T04:01:40;102903.22;;;-2.99;100.00
65760;BME280;52496;51.082;5.066;2023-02-28T04:04:12;102903.97;;;-2.95;100.00
65760;BME280;52496;51.082;5.066;2023-02-28T04:06:44;102909.13;;;-2.92;100.00
65760;BME280;52496;51.082;5.066;2023-02-28T04:09:14;102913.41;;;-2.90;100.00
65760;BME280;52496;51.082;5.066;2023-02-28T04:11:50;102916.75;;;-2.85;100.00
65760;BME280;52496;51.082;5.066;2023-02-28T04:14:22;102913.09;;;-2.79;100.00
65760;BME280;52496;51.082;5.066;2023-02-28T04:16:53;102918.91;;;-2.69;100.00
65760;BME280;52496;51.082;5.066;2023-02-28T04:19:23;102919.44;;;-2.58;100.00
65760;BME280;52496;51.082;5.066;2023-02-28T04:21:54;102920.75;;;-2.45;100.00
65760;BME280;52496;51.082;5.066;2023-02-28T04:24:27;102923.78;;;-2.31;100.00
65760;BME280;52496;51.082;5.066;2023-02-28T04:26:57;102918.16;;;-2.18;100.00
65760;BME280;52496;51.082;5.066;2023-02-28T04:29:31;102923.09;;;-2.09;100.00
65760;BME280;52496;51.082;5.066;2023-02-28T04:32:02;102927.19;;;-2.02;100.00
65760;BME280;52496;51.082;5.066;2023-02-28T04:34:33;102920.75;;;-1.92;100.00
65760;BME280;52496;51.082;5.066;2023-02-28T04:37:04;102920.53;;;-1.86;100.00
65760;BME280;52496;51.082;5.066;2023-02-28T04:39:36;102913.34;;;-1.80;100.00
65760;BME280;52496;51.082;5.066;2023-02-28T04:42:07;102925.38;;;-1.73;100.00
65760;BME280;52496;51.082;5.066;2023-02-28T04:44:37;102923.53;;;-1.71;100.00
65760;BME280;52496;51.082;5.066;2023-02-28T04:47:08;102923.41;;;-1.68;100.00
65760;BME280;52496;51.082;5.066;2023-02-28T04:49:38;102930.22;;;-1.63;100.00
65760;BME280;52496;51.082;5.066;2023-02-28T04:52:09;102925.56;;;-1.54;100.00
65760;BME280;52496;51.082;5.066;2023-02-28T04:54:40;102930.59;;;-1.48;100.00
65760;BME280;52496;51.082;5.066;2023-02-28T04:57:11;102932.19;;;-1.44;100.00
65760;BME280;52496;51.082;5.066;2023-02-28T04:59:41;102930.31;;;-1.41;100.00
65760;BME280;52496;51.082;5.066;2023-02-28T05:02:12;102936.38;;;-1.39;100.00
65760;BME280;52496;51.082;5.066;2023-02-28T05:04:43;102926.72;;;-1.38;100.00
65760;BME280;52496;51.082;5.066;2023-02-28T05:07:13;102939.81;;;-1.36;100.00
65760;BME280;52496;51.082;5.066;2023-02-28T05:09:44;102939.00;;;-1.39;100.00
65760;BME280;52496;51.082;5.066;2023-02-28T05:12:15;102940.81;;;-1.41;100.00
65760;BME280;52496;51.082;5.066;2023-02-28T05:14:46;102937.41;;;-1.43;100.00
65760;BME280;52496;51.082;5.066;2023-02-28T05:17:16;102937.31;;;-1.41;100.00
65760;BME280;52496;51.082;5.066;2023-02-28T05:19:47;102937.41;;;-1.43;100.00
65760;BME280;52496;51.082;5.066;2023-02-28T05:22:18;102940.88;;;-1.42;100.00
65760;BME280;52496;51.082;5.066;2023-02-28T05:24:48;102942.69;;;-1.44;100.00
65760;BME280;52496;51.082;5.066;2023-02-28T05:27:19;102941.75;;;-1.43;100.00
65760;BME280;52496;51.082;5.066;2023-02-28T05:29:49;102946.13;;;-1.42;100.00
65760;BME280;52496;51.082;5.066;2023-02-28T05:32:20;102942.56;;;-1.41;100.00
65760;BME280;52496;51.082;5.066;2023-02-28T05:34:50;102932.88;;;-1.39;100.00
65760;BME280;52496;51.082;5.066;2023-02-28T05:37:21;102926.69;;;-1.36;100.00
65760;BME280;52496;51.082;5.066;2023-02-28T05:39:51;102931.00;;;-1.35;100.00
65760;BME280;52496;51.082;5.066;2023-02-28T05:42:22;102930.03;;;-1.33;100.00
65760;BME280;52496;51.082;5.066;2023-02-28T05:44:52;102927.34;;;-1.31;100.00
65760;BME280;52496;51.082;5.066;2023-02-28T05:47:23;102932.59;;;-1.31;100.00
65760;BME280;52496;51.082;5.066;2023-02-28T05:49:53;102944.72;;;-1.27;100.00
65760;BME280;52496;51.082;5.066;2023-02-28T05:52:24;102949.78;;;-1.23;100.00
65760;BME280;52496;51.082;5.066;2023-02-28T05:54:54;102946.06;;;-1.17;100.00
65760;BME280;52496;51.082;5.066;2023-02-28T05:57:25;102950.41;;;-1.16;100.00
65760;BME280;52496;51.082;5.066;2023-02-28T05:59:56;102942.41;;;-1.13;100.00
65760;BME280;52496;51.082;5.066;2023-02-28T06:02:26;102946.81;;;-1.13;100.00
65760;BME280;52496;51.082;5.066;2023-02-28T06:04:57;102947.66;;;-1.13;100.00
65760;BME280;52496;51.082;5.066;2023-02-28T06:07:28;102943.34;;;-1.14;100.00
65760;BME280;52496;51.082;5.066;2023-02-28T06:09:58;102943.34;;;-1.14;100.00
65760;BME280;52496;51.082;5.066;2023-02-28T06:12:29;102943.41;;;-1.16;100.00
65760;BME280;52496;51.082;5.066;2023-02-28T06:14:59;102947.00;;;-1.18;100.00
65760;BME280;52496;51.082;5.066;2023-02-28T06:17:30;102936.53;;;-1.20;100.00
65760;BME280;52496;51.082;5.066;2023-02-28T06:20:00;102952.41;;;-1.23;100.00
65760;BME280;52496;51.082;5.066;2023-02-28T06:22:31;102949.97;;;-1.27;100.00
65760;BME280;52496;51.082;5.066;2023-02-28T06:25:03;102954.41;;;-1.29;100.00
65760;BME280;52496;51.082;5.066;2023-02-28T06:27:34;102957.25;;;-1.35;100.00
65760;BME280;52496;51.082;5.066;2023-02-28T06:30:06;102950.41;;;-1.40;100.00
65760;BME280;52496;51.082;5.066;2023-02-28T06:32:37;102956.63;;;-1.42;100.00
65760;BME280;52496;51.082;5.066;2023-02-28T06:35:07;102948.91;;;-1.47;100.00
65760;BME280;52496;51.082;5.066;2023-02-28T06:37:38;102958.63;;;-1.49;100.00
65760;BME280;52496;51.082;5.066;2023-02-28T06:40:10;102953.50;;;-1.53;100.00
65760;BME280;52496;51.082;5.066;2023-02-28T06:42:41;102950.97;;;-1.55;100.00
65760;BME280;52496;51.082;5.066;2023-02-28T06:45:12;102958.88;;;-1.56;100.00
65760;BME280;52496;51.082;5.066;2023-02-28T06:47:43;102947.53;;;-1.57;100.00
65760;BME280;52496;51.082;5.066;2023-02-28T06:50:13;102966.69;;;-1.55;100.00
65760;BME280;52496;51.082;5.066;2023-02-28T06:52:44;102963.16;;;-1.54;100.00
65760;BME280;52496;51.082;5.066;2023-02-28T06:55:14;102971.84;;;-1.52;100.00
65760;BME280;52496;51.082;5.066;2023-02-28T06:57:45;102982.22;;;-1.49;100.00
65760;BME280;52496;51.082;5.066;2023-02-28T07:00:15;102978.63;;;-1.46;100.00
65760;BME280;52496;51.082;5.066;2023-02-28T07:02:46;102982.88;;;-1.42;100.00
65760;BME280;52496;51.082;5.066;2023-02-28T07:05:17;102981.81;;;-1.36;100.00
65760;BME280;52496;51.082;5.066;2023-02-28T07:07:47;102983.28;;;-1.29;100.00
65760;BME280;52496;51.082;5.066;2023-02-28T07:10:18;102990.81;;;-1.20;100.00
65760;BME280;52496;51.082;5.066;2023-02-28T07:12:49;102994.03;;;-1.12;100.00
65760;BME280;52496;51.082;5.066;2023-02-28T07:15:21;102995.47;;;-1.03;100.00
65760;BME280;52496;51.082;5.066;2023-02-28T07:17:53;102983.75;;;-0.95;100.00
65760;BME280;52496;51.082;5.066;2023-02-28T07:20:24;102991.41;;;-0.88;100.00
65760;BME280;52496;51.082;5.066;2023-02-28T07:22:55;102991.16;;;-0.82;100.00
65760;BME280;52496;51.082;5.066;2023-02-28T07:25:27;103001.41;;;-0.75;100.00
65760;BME280;52496;51.082;5.066;2023-02-28T07:27:58;102997.72;;;-0.71;100.00
65760;BME280;52496;51.082;5.066;2023-02-28T07:30:29;102995.69;;;-0.62;100.00
65760;BME280;52496;51.082;5.066;2023-02-28T07:33:00;103005.09;;;-0.57;100.00
65760;BME280;52496;51.082;5.066;2023-02-28T07:35:30;102999.59;;;-0.51;100.00
65760;BME280;52496;51.082;5.066;2023-02-28T07:38:01;103001.94;;;-0.43;100.00
65760;BME280;52496;51.082;5.066;2023-02-28T07:40:32;102994.59;;;-0.35;100.00
65760;BME280;52496;51.082;5.066;2023-02-28T07:43:03;102996.13;;;-0.29;100.00
65760;BME280;52496;51.082;5.066;2023-02-28T07:45:34;102992.41;;;-0.24;100.00
65760;BME280;52496;51.082;5.066;2023-02-28T07:48:04;103008.78;;;-0.17;100.00
65760;BME280;52496;51.082;5.066;2023-02-28T07:50:35;102998.88;;;-0.10;100.00
65760;BME280;52496;51.082;5.066;2023-02-28T07:53:06;102998.63;;;-0.04;100.00
65760;BME280;52496;51.082;5.066;2023-02-28T07:55:36;102997.41;;;0.05;98.25
65760;BME280;52496;51.082;5.066;2023-02-28T07:58:07;102991.88;;;0.11;98.31
65760;BME280;52496;51.082;5.066;2023-02-28T08:00:38;102995.91;;;0.19;98.48
65760;BME280;52496;51.082;5.066;2023-02-28T08:03:11;102989.41;;;0.28;97.03
65760;BME280;52496;51.082;5.066;2023-02-28T08:05:42;102990.72;;;0.38;95.76
65760;BME280;52496;51.082;5.066;2023-02-28T08:08:13;102994.66;;;0.49;94.59
65760;BME280;52496;51.082;5.066;2023-02-28T08:10:44;102992.44;;;0.60;92.19
65760;BME280;52496;51.082;5.066;2023-02-28T08:13:14;102998.94;;;0.72;92.22
65760;BME280;52496;51.082;5.066;2023-02-28T08:15:45;102990.56;;;0.82;90.61
65760;BME280;52496;51.082;5.066;2023-02-28T08:18:17;103000.63;;;0.93;88.99
65760;BME280;52496;51.082;5.066;2023-02-28T08:20:48;102999.22;;;1.05;89.10
65760;BME280;52496;51.082;5.066;2023-02-28T08:23:19;102998.78;;;1.14;89.47
65760;BME280;52496;51.082;5.066;2023-02-28T08:25:54;103005.28;;;1.26;89.44
65760;BME280;52496;51.082;5.066;2023-02-28T08:28:25;103006.50;;;1.37;87.00
65760;BME280;52496;51.082;5.066;2023-02-28T08:30:56;103001.72;;;1.46;85.94
65760;BME280;52496;51.082;5.066;2023-02-28T08:33:27;102998.63;;;1.55;85.61
65760;BME280;52496;51.082;5.066;2023-02-28T08:35:57;103006.09;;;1.64;84.62
65760;BME280;52496;51.082;5.066;2023-02-28T08:38:28;103003.97;;;1.72;83.21
65760;BME280;52496;51.082;5.066;2023-02-28T08:41:00;103003.53;;;1.81;83.92
65760;BME280;52496;51.082;5.066;2023-02-28T08:43:31;103005.72;;;1.91;82.42
65760;BME280;52496;51.082;5.066;2023-02-28T08:46:03;103003.41;;;2.02;82.39
65760;BME280;52496;51.082;5.066;2023-02-28T08:48:34;103002.88;;;2.13;80.13
65760;BME280;52496;51.082;5.066;2023-02-28T08:51:10;103004.50;;;2.15;78.27
65760;BME280;52496;51.082;5.066;2023-02-28T08:53:41;103005.13;;;2.20;75.46
65760;BME280;52496;51.082;5.066;2023-02-28T08:56:13;103006.53;;;2.27;76.20
65760;BME280;52496;51.082;5.066;2023-02-28T08:58:45;103001.72;;;2.36;75.90
65760;BME280;52496;51.082;5.066;2023-02-28T09:01:20;102996.75;;;2.47;76.16
65760;BME280;52496;51.082;5.066;2023-02-28T09:03:51;103000.69;;;2.56;73.56
65760;BME280;52496;51.082;5.066;2023-02-28T09:06:24;102998.59;;;2.62;72.44
65760;BME280;52496;51.082;5.066;2023-02-28T09:08:58;102992.06;;;2.69;71.57
65760;BME280;52496;51.082;5.066;2023-02-28T09:11:29;102997.53;;;2.82;73.54
65760;BME280;52496;51.082;5.066;2023-02-28T09:14:01;102994.00;;;2.99;72.42
65760;BME280;52496;51.082;5.066;2023-02-28T09:16:33;103001.88;;;3.16;71.25
65760;BME280;52496;51.082;5.066;2023-02-28T09:19:04;102988.91;;;3.28;67.19
65760;BME280;52496;51.082;5.066;2023-02-28T09:21:35;102995.50;;;3.36;65.25
65760;BME280;52496;51.082;5.066;2023-02-28T09:24:07;102990.03;;;3.39;66.49
65760;BME280;52496;51.082;5.066;2023-02-28T09:26:38;102994.81;;;3.49;65.46
65760;BME280;52496;51.082;5.066;2023-02-28T09:29:09;102995.31;;;3.55;65.55
65760;BME280;52496;51.082;5.066;2023-02-28T09:31:40;102992.16;;;3.64;62.90
65760;BME280;52496;51.082;5.066;2023-02-28T09:34:10;103006.34;;;3.63;61.06
65760;BME280;52496;51.082;5.066;2023-02-28T09:36:41;103000.72;;;3.70;61.30
65760;BME280;52496;51.082;5.066;2023-02-28T09:39:12;102987.91;;;3.78;63.00
65760;BME280;52496;51.082;5.066;2023-02-28T09:41:45;103000.81;;;3.98;60.62
65760;BME280;52496;51.082;5.066;2023-02-28T09:47:46;102984.63;;;4.19;59.10
65760;BME280;52496;51.082;5.066;2023-02-28T09:50:35;102979.22;;;4.36;59.37
65760;BME280;52496;51.082;5.066;2023-02-28T09:53:15;102992.97;;;4.57;58.73
65760;BME280;52496;51.082;5.066;2023-02-28T09:55:55;102991.19;;;4.72;56.69
65760;BME280;52496;51.082;5.066;2023-02-28T09:58:44;102983.03;;;4.89;58.13
65760;BME280;52496;51.082;5.066;2023-02-28T10:01:21;102990.59;;;4.95;53.79
65760;BME280;52496;51.082;5.066;2023-02-28T10:04:00;102989.88;;;4.93;52.66
65760;BME280;52496;51.082;5.066;2023-02-28T10:06:45;102996.22;;;4.91;53.57
65760;BME280;52496;51.082;5.066;2023-02-28T10:09:26;102983.63;;;4.94;53.64
65760;BME280;52496;51.082;5.066;2023-02-28T10:12:03;102977.94;;;5.15;54.61
65760;BME280;52496;51.082;5.066;2023-02-28T10:14:35;102978.84;;;5.28;52.30
65760;BME280;52496;51.082;5.066;2023-02-28T10:17:12;102980.81;;;5.39;50.49
65760;BME280;52496;51.082;5.066;2023-02-28T10:20:21;102976.81;;;5.46;50.80
65760;BME280;52496;51.082;5.066;2023-02-28T10:23:22;102983.16;;;5.58;50.73
65760;BME280;52496;51.082;5.066;2023-02-28T10:26:01;102975.09;;;5.72;50.04
65760;BME280;52496;51.082;5.066;2023-02-28T10:28:32;102980.97;;;5.77;49.43
65760;BME280;52496;51.082;5.066;2023-02-28T10:31:02;102973.13;;;5.75;48.07
65760;BME280;52496;51.082;5.066;2023-02-28T10:33:34;102972.47;;;5.72;47.83
65760;BME280;52496;51.082;5.066;2023-02-28T10:36:05;102985.47;;;5.62;46.96
65760;BME280;52496;51.082;5.066;2023-02-28T10:38:40;102970.31;;;5.64;47.24
65760;BME280;52496;51.082;5.066;2023-02-28T10:41:17;102973.97;;;5.76;46.07
65760;BME280;52496;51.082;5.066;2023-02-28T10:46:48;102970.50;;;5.88;44.05
65760;BME280;52496;51.082;5.066;2023-02-28T10:51:54;102961.13;;;5.97;44.84
65760;BME280;52496;51.082;5.066;2023-02-28T10:54:33;102959.97;;;6.14;46.04
65760;BME280;52496;51.082;5.066;2023-02-28T10:59:38;102959.13;;;6.26;43.59
65760;BME280;52496;51.082;5.066;2023-02-28T11:02:31;102959.47;;;6.34;45.46
65760;BME280;52496;51.082;5.066;2023-02-28T11:05:29;102963.94;;;6.47;40.47
65760;BME280;52496;51.082;5.066;2023-02-28T11:10:54;102955.13;;;6.46;39.85
65760;BME280;52496;51.082;5.066;2023-02-28T11:13:32;102952.81;;;6.54;42.32
65760;BME280;52496;51.082;5.066;2023-02-28T11:16:06;102957.91;;;6.70;42.39
65760;BME280;52496;51.082;5.066;2023-02-28T11:18:50;102954.81;;;6.76;41.10
65760;BME280;52496;51.082;5.066;2023-02-28T11:21:28;102948.63;;;6.63;39.81
65760;BME280;52496;51.082;5.066;2023-02-28T11:24:33;102946.94;;;6.62;39.64
65760;BME280;52496;51.082;5.066;2023-02-28T11:27:11;102941.72;;;6.73;41.44
65760;BME280;52496;51.082;5.066;2023-02-28T11:29:54;102943.31;;;6.76;40.62
65760;BME280;52496;51.082;5.066;2023-02-28T11:32:26;102945.97;;;6.88;41.31
65760;BME280;52496;51.082;5.066;2023-02-28T11:37:41;102934.16;;;6.80;39.05
65760;BME280;52496;51.082;5.066;2023-02-28T11:40:18;102936.47;;;6.84;39.39
65760;BME280;52496;51.082;5.066;2023-02-28T11:46:23;102938.97;;;7.24;40.44
65760;BME280;52496;51.082;5.066;2023-02-28T11:49:02;102943.41;;;7.37;40.04
65760;BME280;52496;51.082;5.066;2023-02-28T11:54:32;102938.41;;;7.56;40.93
65760;BME280;52496;51.082;5.066;2023-02-28T11:59:51;102920.38;;;7.84;40.40
65760;BME280;52496;51.082;5.066;2023-02-28T12:08:15;102921.06;;;8.10;36.63
65760;BME280;52496;51.082;5.066;2023-02-28T12:20:02;102898.72;;;8.46;39.77
65760;BME280;52496;51.082;5.066;2023-02-28T12:27:54;102902.00;;;8.72;37.23
65760;BME280;52496;51.082;5.066;2023-02-28T12:30:27;102889.28;;;8.76;37.37
65760;BME280;52496;51.082;5.066;2023-02-28T12:33:06;102886.13;;;8.82;37.79
65760;BME280;52496;51.082;5.066;2023-02-28T12:35:43;102891.09;;;8.75;37.09
65760;BME280;52496;51.082;5.066;2023-02-28T12:38:31;102894.63;;;8.64;36.00
65760;BME280;52496;51.082;5.066;2023-02-28T12:43:46;102887.34;;;8.44;38.35
65760;BME280;52496;51.082;5.066;2023-02-28T12:46:48;102882.75;;;8.68;37.68
65760;BME280;52496;51.082;5.066;2023-02-28T12:51:57;102879.59;;;8.75;37.12
65760;BME280;52496;51.082;5.066;2023-02-28T13:00:12;102880.47;;;9.18;36.15
65760;BME280;52496;51.082;5.066;2023-02-28T13:09:16;102876.69;;;8.44;36.41
65760;BME280;52496;51.082;5.066;2023-02-28T13:11:52;102876.19;;;8.50;37.29
65760;BME280;52496;51.082;5.066;2023-02-28T13:14:29;102875.59;;;8.69;37.35
65760;BME280;52496;51.082;5.066;2023-02-28T13:24:56;102860.41;;;8.69;37.59
65760;BME280;52496;51.082;5.066;2023-02-28T13:27:37;102845.88;;;8.73;37.59
65760;BME280;52496;51.082;5.066;2023-02-28T13:36:12;102853.03;;;8.39;38.01
65760;BME280;52496;51.082;5.066;2023-02-28T13:39:00;102844.66;;;8.66;39.57
65760;BME280;52496;51.082;5.066;2023-02-28T13:41:41;102839.50;;;8.97;39.81
65760;BME280;52496;51.082;5.066;2023-02-28T13:44:22;102842.25;;;9.18;39.38
65760;BME280;52496;51.082;5.066;2023-02-28T13:49:28;102833.13;;;9.32;37.75
65760;BME280;52496;51.082;5.066;2023-02-28T13:57:57;102840.91;;;8.80;36.38
65760;BME280;52496;51.082;5.066;2023-02-28T14:00:42;102843.97;;;8.64;36.25
65760;BME280;52496;51.082;5.066;2023-02-28T14:04:01;102842.88;;;8.56;36.72
65760;BME280;52496;51.082;5.066;2023-02-28T14:09:00;102847.06;;;8.36;36.63
65760;BME280;52496;51.082;5.066;2023-02-28T14:11:35;102843.19;;;8.28;37.48
65760;BME280;52496;51.082;5.066;2023-02-28T14:14:09;102837.47;;;8.33;38.09
65760;BME280;52496;51.082;5.066;2023-02-28T14:16:47;102834.28;;;8.52;38.19
65760;BME280;52496;51.082;5.066;2023-02-28T14:19:26;102835.22;;;8.62;37.02
65760;BME280;52496;51.082;5.066;2023-02-28T14:25:08;102817.78;;;8.47;37.05
65760;BME280;52496;51.082;5.066;2023-02-28T14:27:48;102832.56;;;8.51;37.50
65760;BME280;52496;51.082;5.066;2023-02-28T14:30:40;102829.78;;;8.41;37.35
65760;BME280;52496;51.082;5.066;2023-02-28T14:36:21;102822.97;;;8.37;38.70
65760;BME280;52496;51.082;5.066;2023-02-28T14:38:57;102824.78;;;8.59;38.08
65760;BME280;52496;51.082;5.066;2023-02-28T14:41:37;102823.31;;;8.66;37.16
65760;BME280;52496;51.082;5.066;2023-02-28T14:44:21;102818.72;;;8.57;36.41
65760;BME280;52496;51.082;5.066;2023-02-28T14:46:57;102825.72;;;8.36;37.94
65760;BME280;52496;51.082;5.066;2023-02-28T14:49:30;102817.25;;;8.08;38.27
65760;BME280;52496;51.082;5.066;2023-02-28T14:52:21;102819.84;;;7.74;38.50
65760;BME280;52496;51.082;5.066;2023-02-28T14:55:03;102809.28;;;7.62;39.72
65760;BME280;52496;51.082;5.066;2023-02-28T14:57:41;102806.97;;;7.57;40.07
65760;BME280;52496;51.082;5.066;2023-02-28T15:00:29;102806.44;;;7.41;40.34
65760;BME280;52496;51.082;5.066;2023-02-28T15:03:01;102809.00;;;7.18;40.68
65760;BME280;52496;51.082;5.066;2023-02-28T15:06:03;102797.94;;;6.87;41.12
65760;BME280;52496;51.082;5.066;2023-02-28T15:08:34;102804.59;;;6.69;41.57
65760;BME280;52496;51.082;5.066;2023-02-28T15:11:18;102807.00;;;6.61;42.48
65760;BME280;52496;51.082;5.066;2023-02-28T15:13:51;102819.53;;;6.59;42.33
65760;BME280;52496;51.082;5.066;2023-02-28T15:16:40;102813.41;;;6.46;41.31
65760;BME280;52496;51.082;5.066;2023-02-28T15:19:32;102815.22;;;6.32;42.00
65760;BME280;52496;51.082;5.066;2023-02-28T15:22:16;102813.41;;;6.20;42.58